createdAt,value
2023-05-12T00:01:43.353Z,55.45
2023-05-12T00:04:11.431Z,55.33
2023-05-12T00:06:39.195Z,55.36
2023-05-12T00:09:06.743Z,55.43
2023-05-12T00:11:34.339Z,55.36
2023-05-12T00:14:02.470Z,55.40
2023-05-12T00:16:30.074Z,55.39
2023-05-12T00:18:58.054Z,55.21
2023-05-12T00:21:25.843Z,55.09
2023-05-12T00:23:53.537Z,55.27
2023-05-12T00:26:21.662Z,55.24
2023-05-12T00:28:49.613Z,55.27
2023-05-12T00:31:17.483Z,55.40
2023-05-12T00:33:44.995Z,55.13
2023-05-12T00:36:12.632Z,55.28
2023-05-12T00:38:41.401Z,55.30
2023-05-12T00:41:09.092Z,55.64
2023-05-12T00:43:36.630Z,55.30
2023-05-12T00:46:06.618Z,55.38
2023-05-12T00:48:34.565Z,55.58
2023-05-12T00:51:04.710Z,55.57
2023-05-12T00:53:41.423Z,55.65
2023-05-12T00:56:18.149Z,55.57
2023-05-12T00:58:47.831Z,55.25
2023-05-12T01:01:17.570Z,55.29
2023-05-12T01:03:47.156Z,55.16
2023-05-12T01:06:38.324Z,55.09
2023-05-12T01:09:08.979Z,55.34
2023-05-12T01:11:38.509Z,55.05
2023-05-12T01:14:06.881Z,54.90
2023-05-12T01:16:40.367Z,55.06
2023-05-12T01:19:15.198Z,55.08
2023-05-12T01:21:43.003Z,54.99
2023-05-12T01:24:12.759Z,55.31
2023-05-12T01:26:43.897Z,55.27
2023-05-12T01:29:13.744Z,55.39
2023-05-12T01:31:42.178Z,55.12
2023-05-12T01:34:18.826Z,55.14
2023-05-12T01:36:50.675Z,54.84
2023-05-12T01:39:18.252Z,54.65
2023-05-12T01:41:46.009Z,54.93
2023-05-12T01:44:13.577Z,54.81
2023-05-12T01:46:41.569Z,54.57
2023-05-12T01:49:09.556Z,54.54
2023-05-12T01:51:37.875Z,54.65
2023-05-12T01:54:06.242Z,54.41
2023-05-12T01:56:37.923Z,54.41
2023-05-12T01:59:05.749Z,54.38
2023-05-12T02:01:43.176Z,54.70
2023-05-12T02:04:15.115Z,54.77
2023-05-12T02:06:44.368Z,54.47
2023-05-12T02:09:12.175Z,54.40
2023-05-12T02:11:39.967Z,54.35
2023-05-12T02:14:08.917Z,54.37
2023-05-12T02:16:37.325Z,54.29
2023-05-12T02:19:05.372Z,54.53
2023-05-12T02:21:33.795Z,54.42
2023-05-12T02:24:01.635Z,54.70
2023-05-12T02:26:29.348Z,54.49
2023-05-12T02:28:57.042Z,54.68
2023-05-12T02:31:24.704Z,54.72
2023-05-12T02:33:52.802Z,54.63
2023-05-12T02:36:20.653Z,54.36
2023-05-12T02:38:48.450Z,54.16
2023-05-12T02:41:16.377Z,54.04
2023-05-12T02:43:44.454Z,53.86
2023-05-12T02:46:12.193Z,53.53
2023-05-12T02:48:40.189Z,53.54
2023-05-12T02:51:07.758Z,53.23
2023-05-12T02:53:35.685Z,52.90
2023-05-12T02:56:03.807Z,53.01
2023-05-12T02:58:31.814Z,52.59
2023-05-12T03:01:09.485Z,52.39
2023-05-12T03:03:38.975Z,52.14
2023-05-12T03:06:07.209Z,51.81
2023-05-12T03:08:36.366Z,51.47
2023-05-12T03:11:03.935Z,51.08
2023-05-12T03:13:32.042Z,50.81
2023-05-12T03:16:01.832Z,50.35
2023-05-12T03:18:31.329Z,50.01
2023-05-12T03:20:59.097Z,49.67
2023-05-12T03:23:26.961Z,49.32
2023-05-12T03:25:55.889Z,49.08
2023-05-12T03:28:25.411Z,48.78
2023-05-12T03:30:53.734Z,48.42
2023-05-12T03:33:21.687Z,48.09
2023-05-12T03:35:52.392Z,47.88
2023-05-12T03:38:20.093Z,47.66
2023-05-12T03:40:53.127Z,47.10
2023-05-12T03:43:21.384Z,46.99
2023-05-12T03:45:49.724Z,46.86
2023-05-12T03:48:17.637Z,46.60
2023-05-12T03:50:45.079Z,46.32
2023-05-12T03:53:12.653Z,45.99
2023-05-12T03:55:40.455Z,45.62
